createdAt,value
2018-05-04T00:02:36.717Z,29.50
2018-05-04T00:07:10.053Z,41.50
2018-05-04T00:11:45.986Z,48.27
2018-05-04T00:16:19.950Z,41.07
2018-05-04T00:20:53.382Z,52.87
2018-05-04T00:25:28.111Z,51.37
2018-05-04T00:30:01.314Z,54.70
2018-05-04T00:34:34.754Z,47.20
2018-05-04T00:39:08.711Z,49.30
2018-05-04T00:43:41.895Z,50.87
2018-05-04T02:12:19.446Z,49.17
2018-05-04T02:16:55.785Z,37.53
2018-05-04T02:21:29.947Z,23.00
2018-05-04T02:26:03.815Z,19.90
2018-05-04T02:30:37.122Z,46.67
2018-05-04T02:35:11.074Z,40.90
2018-05-04T02:39:44.286Z,19.13
2018-05-04T02:44:17.618Z,37.67
2018-05-04T02:48:50.782Z,34.03
2018-05-04T02:53:24.029Z,32.03
2018-05-04T02:57:57.221Z,18.73
2018-05-04T03:02:30.458Z,37.57
2018-05-04T03:07:03.613Z,17.73
2018-05-04T03:11:36.794Z,19.77
2018-05-04T03:16:10.748Z,12.80
2018-05-04T03:20:43.945Z,16.50
2018-05-04T03:25:17.270Z,15.30
2018-05-04T03:29:50.516Z,21.27
2018-05-04T03:34:23.835Z,33.43
2018-05-04T03:49:10.650Z,14.37
2018-05-04T03:53:43.842Z,12.40
2018-05-04T03:58:29.722Z,14.57
2018-05-04T04:08:09.921Z,11.43
2018-05-04T04:12:43.205Z,11.20
2018-05-04T04:17:17.093Z,14.57
2018-05-04T04:21:50.289Z,15.50
2018-05-04T04:26:24.187Z,11.47
2018-05-04T04:30:58.340Z,13.90
2018-05-04T04:35:32.276Z,12.20
2018-05-04T04:40:05.546Z,12.13
2018-05-04T04:44:39.662Z,16.93
2018-05-04T04:49:12.888Z,10.77
2018-05-04T04:53:46.046Z,13.33
2018-05-04T04:58:19.226Z,11.73
2018-05-04T05:02:52.411Z,13.00
2018-05-04T05:07:26.354Z,10.80
2018-05-04T05:12:00.561Z,22.07
2018-05-04T05:16:33.746Z,13.53
2018-05-04T05:21:06.930Z,11.77
2018-05-04T05:25:40.114Z,15.90
2018-05-04T05:30:13.306Z,17.93
2018-05-04T05:34:46.533Z,12.20
2018-05-04T05:39:19.908Z,13.63
2018-05-04T05:43:53.849Z,16.13
2018-05-04T05:48:27.799Z,12.83
2018-05-04T05:53:00.955Z,11.00
2018-05-04T05:57:34.303Z,9.17
2018-05-04T06:02:07.458Z,10.23
2018-05-04T06:06:42.147Z,12.27
2018-05-04T06:11:15.330Z,12.63
2018-05-04T06:15:49.287Z,11.20
2018-05-04T06:20:22.442Z,9.83
2018-05-04T06:24:55.631Z,7.40
2018-05-04T06:29:28.812Z,9.77
2018-05-04T06:34:01.996Z,8.27
2018-05-04T06:38:35.944Z,8.47
2018-05-04T06:43:09.126Z,7.47
2018-05-04T06:47:42.389Z,9.70
2018-05-04T06:52:15.575Z,7.93
2018-05-04T06:56:48.762Z,9.68
2018-05-04T07:01:21.945Z,7.65
2018-05-04T07:05:55.134Z,8.57
2018-05-04T07:10:28.420Z,5.85
2018-05-04T07:15:01.601Z,6.30
2018-05-04T07:19:34.789Z,7.18
2018-05-04T07:24:07.962Z,8.40
2018-05-04T07:28:42.297Z,5.03
2018-05-04T07:33:15.491Z,6.82
2018-05-04T07:37:48.627Z,5.03
2018-05-04T07:42:21.954Z,5.30
2018-05-04T07:46:55.130Z,4.65
2018-05-04T07:51:29.054Z,5.68
2018-05-04T07:56:03.006Z,5.87
2018-05-04T08:00:36.215Z,5.80
2018-05-04T08:05:09.414Z,4.25
2018-05-04T08:09:42.737Z,6.68
2018-05-04T08:14:15.929Z,6.70
2018-05-04T08:18:49.204Z,6.32
2018-05-04T08:23:22.381Z,6.80
2018-05-04T08:27:55.620Z,11.82
2018-05-04T08:32:28.804Z,7.00
2018-05-04T08:37:02.008Z,7.55
2018-05-04T08:41:35.207Z,5.22
2018-05-04T08:46:08.386Z,6.87
2018-05-04T08:50:41.574Z,4.30
2018-05-04T08:55:14.782Z,6.15
2018-05-04T08:59:47.967Z,9.00
2018-05-04T09:04:22.155Z,6.85
2018-05-04T09:08:55.563Z,6.12
2018-05-04T09:13:28.763Z,6.65
2018-05-04T09:18:02.017Z,6.12
2018-05-04T09:22:35.189Z,4.82
2018-05-04T09:27:08.374Z,7.07
2018-05-04T09:31:41.573Z,4.25
2018-05-04T09:36:14.762Z,6.78
2018-05-04T09:40:48.781Z,8.48
2018-05-04T09:45:22.837Z,6.75
2018-05-04T09:49:56.026Z,5.53
2018-05-04T09:54:29.214Z,5.12
2018-05-04T09:59:03.142Z,5.57
2018-05-04T10:03:37.147Z,5.03
2018-05-04T10:08:10.311Z,8.57
2018-05-04T10:12:43.504Z,10.73
2018-05-04T10:17:16.682Z,7.60
2018-05-04T10:21:51.655Z,6.57
2018-05-04T10:26:25.014Z,5.70
2018-05-04T10:30:59.275Z,6.53
2018-05-04T10:35:33.232Z,8.45
2018-05-04T10:40:06.422Z,5.50
2018-05-04T10:44:39.623Z,7.00
2018-05-04T10:49:12.792Z,14.93
2018-05-04T10:53:45.982Z,5.85
2018-05-04T10:58:19.324Z,6.47
2018-05-04T11:02:52.507Z,7.82
2018-05-04T11:07:25.701Z,6.95
2018-05-04T11:11:58.907Z,5.57
2018-05-04T11:16:32.074Z,6.40
2018-05-04T11:21:05.281Z,10.25
2018-05-04T11:25:38.465Z,6.70
2018-05-04T11:30:12.414Z,7.07
2018-05-04T11:34:45.598Z,7.20
2018-05-04T11:39:19.558Z,5.78
2018-05-04T11:43:52.724Z,10.65
2018-05-04T11:48:26.989Z,7.93
2018-05-04T11:53:00.222Z,9.68
2018-05-04T11:57:33.457Z,5.40
2018-05-04T12:02:06.647Z,9.50
2018-05-04T12:06:39.821Z,8.63
2018-05-04T12:11:13.005Z,6.45
2018-05-04T12:15:47.015Z,6.47
2018-05-04T12:20:20.990Z,5.20
2018-05-04T12:24:54.151Z,7.53
2018-05-04T12:29:28.110Z,6.12
2018-05-04T12:34:01.295Z,6.43
2018-05-04T12:38:34.518Z,10.30
2018-05-04T12:43:07.684Z,9.60
2018-05-04T12:47:40.870Z,9.05
2018-05-04T12:52:14.059Z,10.95
2018-05-04T12:56:47.246Z,7.10
2018-05-04T13:01:20.504Z,7.07
2018-05-04T13:05:53.670Z,17.70
2018-05-04T13:10:26.866Z,10.07
2018-05-04T13:15:00.058Z,5.65
2018-05-04T13:19:33.274Z,8.98
2018-05-04T13:24:06.462Z,5.87
2018-05-04T13:28:40.646Z,12.90
2018-05-04T13:33:13.884Z,6.37
2018-05-04T13:37:47.830Z,9.65
2018-05-04T13:42:21.013Z,8.75
2018-05-04T13:46:54.970Z,9.93
2018-05-04T13:51:28.214Z,6.70
2018-05-04T13:56:02.170Z,6.80
2018-05-04T14:00:36.101Z,6.43
2018-05-04T14:05:10.051Z,9.15
2018-05-04T14:09:43.240Z,12.60
2018-05-04T14:14:17.366Z,8.40
2018-05-04T14:18:51.321Z,7.93
2018-05-04T14:23:24.806Z,6.95
2018-05-04T14:27:58.761Z,7.95
2018-05-04T14:32:31.952Z,7.55
2018-05-04T14:37:05.139Z,9.90
2018-05-04T14:41:39.106Z,9.30
2018-05-04T14:46:12.271Z,7.87
2018-05-04T14:50:46.221Z,8.13
2018-05-04T14:55:19.714Z,8.05
2018-05-04T14:59:52.900Z,7.95
2018-05-04T15:04:26.854Z,11.70
2018-05-04T15:09:00.063Z,11.50
2018-05-04T15:13:33.257Z,8.40
2018-05-04T15:18:07.296Z,7.60
2018-05-04T15:22:40.491Z,7.20
2018-05-04T15:27:13.653Z,13.07
2018-05-04T15:31:48.346Z,7.62
2018-05-04T15:36:21.530Z,8.25
2018-05-04T15:40:55.497Z,8.52
2018-05-04T15:45:28.664Z,8.50
2018-05-04T15:50:07.563Z,8.20
2018-05-04T15:54:40.740Z,8.45
2018-05-04T15:59:13.942Z,8.15
2018-05-04T16:03:47.442Z,7.57
2018-05-04T16:08:20.612Z,8.90
2018-05-04T16:12:53.808Z,10.20
2018-05-04T16:17:27.017Z,7.85
2018-05-04T16:22:00.289Z,8.32
2018-05-04T16:26:33.422Z,7.53
2018-05-04T16:31:06.603Z,6.93
2018-05-04T16:35:39.868Z,8.35
2018-05-04T16:40:13.036Z,9.35
2018-05-04T16:44:46.217Z,5.43
2018-05-04T16:49:25.464Z,7.85
2018-05-04T16:53:58.737Z,5.95
2018-05-04T16:58:32.667Z,6.37
2018-05-04T17:03:05.905Z,6.47
2018-05-04T17:07:39.210Z,5.97
2018-05-04T17:12:12.419Z,6.00
2018-05-04T17:16:45.577Z,5.60
2018-05-04T17:21:18.786Z,7.80
2018-05-04T17:25:51.954Z,5.53
2018-05-04T17:30:25.182Z,6.43
2018-05-04T17:34:58.401Z,5.75
2018-05-04T17:39:32.352Z,4.68
2018-05-04T17:44:06.276Z,7.37
2018-05-04T17:48:40.237Z,6.85
2018-05-04T17:53:14.023Z,6.37
2018-05-04T17:57:48.275Z,6.93
2018-05-04T18:02:21.464Z,7.50
2018-05-04T18:06:55.490Z,5.55
2018-05-04T18:11:28.647Z,4.72
2018-05-04T18:16:02.091Z,3.42
2018-05-04T18:20:36.033Z,4.60
2018-05-04T18:25:09.247Z,5.47
2018-05-04T18:29:42.433Z,6.18
2018-05-04T18:34:16.387Z,7.68
2018-05-04T18:38:49.686Z,8.40
2018-05-04T18:43:22.926Z,5.60
2018-05-04T18:47:56.115Z,8.25
2018-05-04T18:52:29.503Z,7.35
2018-05-04T18:57:03.980Z,7.87
2018-05-04T19:01:38.170Z,9.98
2018-05-04T19:06:11.525Z,6.30
2018-05-04T19:10:44.735Z,7.03
2018-05-04T19:15:18.144Z,5.35
2018-05-04T19:19:51.514Z,4.12
2018-05-04T19:24:24.672Z,4.28
2018-05-04T19:28:57.854Z,8.02
2018-05-04T19:33:31.056Z,3.47
2018-05-04T19:38:04.366Z,5.75
2018-05-04T19:42:37.549Z,6.55
2018-05-04T19:47:10.737Z,9.23
2018-05-04T19:51:44.710Z,5.68
2018-05-04T19:56:18.179Z,5.57
2018-05-04T20:00:52.102Z,8.35
2018-05-04T20:05:25.451Z,5.22
2018-05-04T20:09:58.988Z,4.72
2018-05-04T20:14:32.190Z,5.70
2018-05-04T20:19:05.555Z,6.90
2018-05-04T20:23:38.862Z,9.70
2018-05-04T20:28:12.786Z,7.80
2018-05-04T20:32:46.485Z,5.07
2018-05-04T20:37:19.746Z,5.50
2018-05-04T20:41:52.898Z,8.00
2018-05-04T20:46:28.018Z,3.90
2018-05-04T20:51:01.174Z,4.55
2018-05-04T20:55:34.471Z,5.50
2018-05-04T21:00:08.438Z,8.98
2018-05-04T21:04:41.602Z,5.95
2018-05-04T21:09:15.557Z,5.60
2018-05-04T21:13:48.738Z,6.32
2018-05-04T21:18:22.698Z,21.17
2018-05-04T21:22:55.886Z,20.33
2018-05-04T21:27:29.078Z,85.15
2018-05-04T21:32:02.272Z,102.75
2018-05-04T21:36:36.229Z,46.92
2018-05-04T21:41:09.421Z,40.97
2018-05-04T21:45:42.612Z,50.80
2018-05-04T21:50:16.545Z,47.62
2018-05-04T21:54:49.757Z,45.30
2018-05-04T21:59:22.998Z,33.77
2018-05-04T22:03:56.191Z,56.43
2018-05-04T22:08:29.406Z,78.47
2018-05-04T22:13:02.570Z,50.43
2018-05-04T22:17:36.586Z,44.57
2018-05-04T22:22:10.544Z,50.73
2018-05-04T22:26:43.739Z,57.67
2018-05-04T22:31:16.929Z,82.83
2018-05-04T22:35:50.881Z,43.40
2018-05-04T22:40:24.073Z,31.97
2018-05-04T22:44:57.360Z,15.40
2018-05-04T22:49:30.546Z,6.97
2018-05-04T22:54:03.699Z,7.50
2018-05-04T22:58:36.882Z,6.23
2018-05-04T23:03:11.023Z,7.40
2018-05-04T23:07:44.331Z,6.53
2018-05-04T23:12:18.321Z,6.28
2018-05-04T23:16:51.485Z,9.02
2018-05-04T23:21:24.669Z,7.05
2018-05-04T23:25:58.623Z,6.45
2018-05-04T23:30:31.803Z,8.10
2018-05-04T23:35:06.631Z,6.93
2018-05-04T23:39:40.338Z,7.03
2018-05-04T23:44:13.518Z,7.70
2018-05-04T23:48:46.699Z,6.63
2018-05-04T23:53:19.972Z,6.40
2018-05-04T23:57:53.925Z,6.60
